createdAt,value
2023-01-11T00:00:59.299Z,95.30
2023-01-11T00:04:41.662Z,95.30
2023-01-11T00:08:26.956Z,95.40
2023-01-11T00:12:09.041Z,95.30
2023-01-11T00:15:51.028Z,95.40
2023-01-11T00:19:33.100Z,95.50
2023-01-11T00:23:15.168Z,95.50
2023-01-11T00:26:57.097Z,95.60
2023-01-11T00:30:39.081Z,95.70
2023-01-11T00:34:21.110Z,95.70
2023-01-11T00:38:03.177Z,95.60
2023-01-11T00:42:03.569Z,95.60
2023-01-11T00:46:03.937Z,95.60
2023-01-11T00:49:45.990Z,95.50
2023-01-11T00:53:27.902Z,95.50
2023-01-11T00:57:10.144Z,95.60
2023-01-11T01:00:52.034Z,95.50
2023-01-11T01:04:35.243Z,95.40
2023-01-11T01:08:17.141Z,95.30
2023-01-11T01:11:59.465Z,95.30
2023-01-11T01:15:42.989Z,95.40
2023-01-11T01:19:27.903Z,95.40
2023-01-11T01:23:09.772Z,95.30
2023-01-11T01:26:51.769Z,95.40
2023-01-11T01:30:33.943Z,95.40
2023-01-11T01:34:16.088Z,95.40
2023-01-11T01:37:58.052Z,95.50
2023-01-11T01:41:40.029Z,95.40
2023-01-11T01:45:27.790Z,95.30
2023-01-11T01:49:15.586Z,95.40
2023-01-11T01:53:04.540Z,95.50
2023-01-11T01:56:52.616Z,95.50
2023-01-11T02:00:34.610Z,95.50
2023-01-11T02:04:24.637Z,95.40
2023-01-11T02:08:12.352Z,95.40
2023-01-11T02:11:56.654Z,95.50
2023-01-11T02:15:38.735Z,95.60
2023-01-11T02:19:43.800Z,95.50
2023-01-11T02:24:06.984Z,95.20
2023-01-11T02:28:16.740Z,94.30
2023-01-11T02:32:20.067Z,95.10
2023-01-11T02:36:49.903Z,94.60
2023-01-11T02:41:09.392Z,94.00
2023-01-11T02:45:06.500Z,94.40
2023-01-11T02:49:17.055Z,95.10
2023-01-11T02:53:03.727Z,94.60
2023-01-11T02:56:48.751Z,95.10
2023-01-11T03:00:31.027Z,95.10
2023-01-11T03:04:42.230Z,95.00
2023-01-11T03:08:32.884Z,93.90
2023-01-11T03:12:55.133Z,95.00
2023-01-11T03:17:09.128Z,94.10
2023-01-11T03:21:04.760Z,94.10
2023-01-11T03:24:52.801Z,95.00
2023-01-11T03:29:04.663Z,95.10
2023-01-11T03:32:55.683Z,94.70
2023-01-11T03:36:54.167Z,94.90
2023-01-11T03:40:46.021Z,94.80
2023-01-11T03:44:34.261Z,95.00
2023-01-11T03:48:21.207Z,95.10
2023-01-11T03:52:07.633Z,95.10
2023-01-11T03:55:51.726Z,95.20
2023-01-11T03:59:34.979Z,94.30
2023-01-11T04:03:16.863Z,95.30
2023-01-11T04:06:58.729Z,95.30
2023-01-11T04:10:40.731Z,95.40
2023-01-11T04:14:22.764Z,95.40
2023-01-11T04:18:05.430Z,95.40
2023-01-11T04:21:47.304Z,95.40
2023-01-11T04:25:29.240Z,95.30
2023-01-11T04:29:11.264Z,95.30
2023-01-11T04:32:53.358Z,95.40
2023-01-11T04:36:35.376Z,95.20
2023-01-11T04:40:17.614Z,95.20
2023-01-11T04:43:59.464Z,95.20
2023-01-11T04:47:41.460Z,95.10
2023-01-11T04:51:23.588Z,95.10
2023-01-11T04:55:05.772Z,95.00
2023-01-11T04:58:47.843Z,94.90
2023-01-11T05:02:29.735Z,95.00
2023-01-11T05:06:12.626Z,94.70
2023-01-11T05:09:54.804Z,94.70
2023-01-11T05:13:42.448Z,94.60
2023-01-11T05:17:24.523Z,94.60
2023-01-11T05:21:06.611Z,94.60
2023-01-11T05:24:48.564Z,94.70
2023-01-11T05:28:30.464Z,94.70
2023-01-11T05:32:13.005Z,94.70
2023-01-11T05:36:03.160Z,94.70
2023-01-11T05:39:45.157Z,94.70
2023-01-11T05:43:28.209Z,94.90
2023-01-11T05:47:10.119Z,94.90
2023-01-11T05:50:54.068Z,94.90
2023-01-11T05:54:36.005Z,95.10
2023-01-11T05:58:18.027Z,95.40
2023-01-11T06:01:59.980Z,95.50
2023-01-11T06:05:41.879Z,95.70
2023-01-11T06:09:23.826Z,95.70
2023-01-11T06:13:27.706Z,95.60
2023-01-11T06:17:09.598Z,95.60
2023-01-11T06:20:52.540Z,95.50
2023-01-11T06:24:34.423Z,95.30
2023-01-11T06:28:16.535Z,95.20
2023-01-11T06:31:59.748Z,95.10
2023-01-11T06:35:43.170Z,95.00
2023-01-11T06:39:25.141Z,94.90
2023-01-11T06:43:08.797Z,94.90
2023-01-11T06:46:50.844Z,94.90
2023-01-11T06:50:32.776Z,94.80
2023-01-11T06:54:14.646Z,94.80
2023-01-11T06:57:57.021Z,94.80
2023-01-11T07:01:38.953Z,94.90
2023-01-11T07:05:21.679Z,95.00
2023-01-11T07:09:03.735Z,95.10
2023-01-11T07:12:45.676Z,95.00
2023-01-11T07:16:27.606Z,95.00
2023-01-11T07:20:10.405Z,95.00
2023-01-11T07:23:52.602Z,95.10
2023-01-11T07:27:34.512Z,95.00
2023-01-11T07:31:16.415Z,95.20
2023-01-11T07:34:58.519Z,95.10
2023-01-11T07:38:40.632Z,95.10
2023-01-11T07:42:41.272Z,95.20
2023-01-11T07:46:23.906Z,95.20
2023-01-11T07:50:07.932Z,95.20
2023-01-11T07:53:50.227Z,95.10
2023-01-11T07:57:33.271Z,95.10
2023-01-11T08:01:32.996Z,95.10
2023-01-11T08:05:15.013Z,95.10
2023-01-11T08:08:56.955Z,95.00
2023-01-11T08:13:01.981Z,95.00
2023-01-11T08:16:44.017Z,95.10
2023-01-11T08:20:27.146Z,95.10
2023-01-11T08:24:09.089Z,95.10
2023-01-11T08:27:53.585Z,95.20
2023-01-11T08:31:35.528Z,95.20
2023-01-11T08:35:17.639Z,95.20
2023-01-11T08:38:59.737Z,95.20
2023-01-11T08:42:42.267Z,95.20
2023-01-11T08:46:24.437Z,95.30
2023-01-11T08:50:08.591Z,95.40
2023-01-11T08:53:52.725Z,95.40
2023-01-11T08:57:40.464Z,95.50
2023-01-11T09:01:23.918Z,95.50
2023-01-11T09:05:06.676Z,95.70
2023-01-11T09:08:49.841Z,95.60
2023-01-11T09:12:32.973Z,95.70
2023-01-11T09:16:15.608Z,95.80
2023-01-11T09:19:57.939Z,96.00
2023-01-11T09:23:40.706Z,96.30
2023-01-11T09:27:25.096Z,96.80
2023-01-11T09:31:08.361Z,96.80
2023-01-11T09:34:53.857Z,96.80
2023-01-11T09:38:40.522Z,96.80
2023-01-11T09:42:39.801Z,96.40
2023-01-11T09:46:25.016Z,95.50
2023-01-11T09:50:27.809Z,96.10
2023-01-11T09:54:20.155Z,95.10
2023-01-11T09:58:42.700Z,96.40
2023-01-11T10:02:46.086Z,93.60
2023-01-11T10:07:10.377Z,93.90
2023-01-11T10:18:41.726Z,93.60
2023-01-11T10:19:48.226Z,90.00
2023-01-11T10:23:58.417Z,93.40
2023-01-11T10:28:06.119Z,90.20
2023-01-11T10:32:10.651Z,92.60
2023-01-11T10:36:35.021Z,91.80
2023-01-11T10:40:37.823Z,91.20
2023-01-11T10:44:30.835Z,93.70
2023-01-11T10:48:58.978Z,94.50
2023-01-11T10:52:54.560Z,91.10
2023-01-11T10:57:01.999Z,94.40
2023-01-11T11:00:58.758Z,92.90
2023-01-11T11:04:48.328Z,94.60
2023-01-11T11:08:57.653Z,94.90
2023-01-11T11:12:53.115Z,92.60
2023-01-11T11:17:21.774Z,94.40
2023-01-11T11:21:41.329Z,93.30
2023-01-11T11:25:44.910Z,93.50
2023-01-11T11:29:32.367Z,93.30
2023-01-11T11:33:55.751Z,94.20
2023-01-11T11:37:48.260Z,93.50
2023-01-11T11:50:44.123Z,92.10
2023-01-11T11:54:56.858Z,93.40
2023-01-11T11:58:47.194Z,93.10
2023-01-11T12:02:32.839Z,93.70
2023-01-11T12:06:25.683Z,93.80
2023-01-11T12:10:19.827Z,93.80
2023-01-11T12:14:11.022Z,94.30
2023-01-11T12:17:55.777Z,94.00
2023-01-11T12:21:37.859Z,94.70
2023-01-11T12:25:27.128Z,94.80
2023-01-11T12:29:22.146Z,94.80
2023-01-11T12:33:29.219Z,94.60
2023-01-11T12:37:17.193Z,94.80
2023-01-11T12:41:21.107Z,93.80
2023-01-11T12:45:18.720Z,93.90
2023-01-11T12:49:16.902Z,94.90
2023-01-11T12:53:25.000Z,94.40
2023-01-11T12:58:19.056Z,94.90
2023-01-11T13:02:09.732Z,94.00
2023-01-11T13:05:51.995Z,95.10
2023-01-11T13:09:43.320Z,95.30
2023-01-11T13:13:44.166Z,95.00
2023-01-11T13:17:52.125Z,95.20
2023-01-11T13:21:54.344Z,94.20
2023-01-11T13:25:41.056Z,94.80
2023-01-11T13:29:31.526Z,95.30
2023-01-11T13:33:22.493Z,94.70
2023-01-11T13:37:47.009Z,95.30
2023-01-11T13:41:39.922Z,95.20
2023-01-11T13:49:28.452Z,95.00
2023-01-11T13:53:38.239Z,95.20
2023-01-11T13:57:42.423Z,94.70
2023-01-11T14:01:54.009Z,94.90
2023-01-11T14:06:11.149Z,95.40
2023-01-11T14:10:21.346Z,95.50
2023-01-11T14:14:28.201Z,95.40
2023-01-11T14:18:14.541Z,95.70
2023-01-11T14:22:18.329Z,95.90
2023-01-11T14:31:16.926Z,96.00
2023-01-11T14:35:27.472Z,95.90
2023-01-11T14:39:20.401Z,95.80
2023-01-11T14:43:30.502Z,95.90
2023-01-11T14:47:19.845Z,96.00
2023-01-11T14:51:48.406Z,95.90
2023-01-11T14:55:36.309Z,95.40
2023-01-11T14:59:30.336Z,95.70
2023-01-11T15:03:18.378Z,95.60
2023-01-11T15:07:00.923Z,95.80
2023-01-11T15:11:02.240Z,95.80
2023-01-11T15:15:04.079Z,95.30
2023-01-11T15:23:05.132Z,95.80
2023-01-11T15:26:49.590Z,95.40
2023-01-11T15:30:34.873Z,95.70
2023-01-11T15:34:50.417Z,95.60
2023-01-11T15:38:57.709Z,95.00
2023-01-11T15:43:49.662Z,95.60
2023-01-11T15:49:10.064Z,95.00
2023-01-11T16:08:02.446Z,95.20
2023-01-11T16:12:38.738Z,95.40
2023-01-11T16:16:32.541Z,95.00
2023-01-11T16:24:43.387Z,95.50
2023-01-11T16:28:27.134Z,95.70
2023-01-11T16:32:35.332Z,95.60
2023-01-11T16:36:22.148Z,95.50
2023-01-11T16:40:07.465Z,95.70
2023-01-11T16:44:16.007Z,95.70
2023-01-11T16:48:24.134Z,95.70
2023-01-11T16:52:28.744Z,95.30
2023-01-11T16:56:24.885Z,95.30
2023-01-11T17:00:21.091Z,95.40
2023-01-11T17:04:07.201Z,95.70
2023-01-11T17:07:52.103Z,95.80
2023-01-11T17:11:46.984Z,95.90
2023-01-11T17:15:53.198Z,95.70
2023-01-11T17:19:39.787Z,95.70
2023-01-11T17:23:21.812Z,95.70
2023-01-11T17:27:06.644Z,95.60
2023-01-11T17:30:52.713Z,95.60
2023-01-11T17:34:39.129Z,95.80
2023-01-11T17:38:30.305Z,95.70
2023-01-11T17:42:33.668Z,94.60
2023-01-11T17:46:44.405Z,95.80
2023-01-11T17:50:34.751Z,95.60
2023-01-11T17:54:26.227Z,95.70
2023-01-11T17:58:20.056Z,95.70
2023-01-11T18:02:09.725Z,95.40
2023-01-11T18:05:51.837Z,95.80
2023-01-11T18:09:39.208Z,95.80
2023-01-11T18:13:28.036Z,96.00
2023-01-11T18:17:42.317Z,96.00
2023-01-11T18:21:28.386Z,95.40
2023-01-11T18:25:26.727Z,95.90
2023-01-11T18:29:43.706Z,95.90
2023-01-11T18:33:30.737Z,95.20
2023-01-11T18:37:13.467Z,95.90
2023-01-11T18:40:57.521Z,95.90
2023-01-11T18:44:41.636Z,96.00
2023-01-11T18:48:24.940Z,96.00
2023-01-11T18:52:07.242Z,96.00
2023-01-11T18:55:50.185Z,95.90
2023-01-11T18:59:32.342Z,95.80
2023-01-11T19:03:16.020Z,95.80
2023-01-11T19:06:59.387Z,95.80
2023-01-11T19:10:41.404Z,95.90
2023-01-11T19:14:23.404Z,95.90
2023-01-11T19:18:05.859Z,95.90
2023-01-11T19:21:47.953Z,96.00
2023-01-11T19:25:30.071Z,96.00
2023-01-11T19:29:16.579Z,96.00
2023-01-11T19:32:58.577Z,96.10
2023-01-11T19:36:40.869Z,95.60
2023-01-11T19:40:23.266Z,96.10
2023-01-11T19:44:05.591Z,96.10
2023-01-11T19:47:47.704Z,96.20
2023-01-11T19:51:32.210Z,96.20
2023-01-11T19:55:15.479Z,96.20
2023-01-11T19:58:57.640Z,96.30
2023-01-11T20:02:39.861Z,96.40
2023-01-11T20:06:21.998Z,96.30
2023-01-11T20:10:04.303Z,96.30
2023-01-11T20:13:54.782Z,96.30
2023-01-11T20:17:37.975Z,96.30
2023-01-11T20:21:21.096Z,96.40
2023-01-11T20:25:03.074Z,96.30
2023-01-11T20:28:51.037Z,96.40
2023-01-11T20:32:41.371Z,96.40
2023-01-11T20:36:24.794Z,96.30
2023-01-11T20:40:07.591Z,96.30
2023-01-11T20:43:49.681Z,96.30
2023-01-11T20:47:31.854Z,96.30
2023-01-11T20:51:15.975Z,96.30
2023-01-11T20:54:57.922Z,96.30
2023-01-11T20:58:41.644Z,96.30
2023-01-11T21:02:23.791Z,96.30
2023-01-11T21:06:08.197Z,96.30
2023-01-11T21:09:50.221Z,96.30
2023-01-11T21:13:32.661Z,96.30
2023-01-11T21:17:14.677Z,96.40
2023-01-11T21:20:56.788Z,96.30
2023-01-11T21:24:41.202Z,96.40
2023-01-11T21:28:23.501Z,96.40
2023-01-11T21:32:06.181Z,96.40
2023-01-11T21:35:48.302Z,96.20
2023-01-11T21:39:30.261Z,96.30
2023-01-11T21:43:14.853Z,96.40
2023-01-11T21:46:56.932Z,96.30
2023-01-11T21:50:38.981Z,96.20
2023-01-11T21:54:21.460Z,96.20
2023-01-11T21:58:03.641Z,96.30
2023-01-11T22:01:46.883Z,96.30
2023-01-11T22:05:30.583Z,96.30
2023-01-11T22:09:13.035Z,96.30
2023-01-11T22:12:55.581Z,96.30
2023-01-11T22:16:37.812Z,96.40
2023-01-11T22:20:20.209Z,96.50
2023-01-11T22:24:03.070Z,96.50
2023-01-11T22:27:45.136Z,96.40
2023-01-11T22:31:29.929Z,96.50
2023-01-11T22:35:12.986Z,96.50
2023-01-11T22:38:56.561Z,96.60
2023-01-11T22:42:41.061Z,96.70
2023-01-11T22:46:25.395Z,96.70
2023-01-11T22:50:09.740Z,96.70
2023-01-11T22:53:59.391Z,96.80
2023-01-11T22:57:41.384Z,96.80
2023-01-11T23:01:36.083Z,96.90
2023-01-11T23:05:21.990Z,96.90
2023-01-11T23:09:05.806Z,96.90
2023-01-11T23:13:11.701Z,96.90
2023-01-11T23:16:58.829Z,97.00
2023-01-11T23:20:42.067Z,97.00
2023-01-11T23:24:33.138Z,96.90
2023-01-11T23:28:15.096Z,97.00
2023-01-11T23:31:58.351Z,96.90
2023-01-11T23:35:41.058Z,97.00
2023-01-11T23:39:25.299Z,97.00
2023-01-11T23:43:07.302Z,97.00
2023-01-11T23:47:09.173Z,97.00
2023-01-11T23:50:59.132Z,97.00
2023-01-11T23:54:41.576Z,97.00
2023-01-11T23:58:23.672Z,97.00
